sensor_id;sensor_type;location;lat;lon;timestamp;P1;durP1;ratioP1;P2;durP2;ratioP2
29688;SDS011;16600;47.444;8.334;2022-12-07T00:01:48;47.17;;;30.92;;
29688;SDS011;16600;47.444;8.334;2022-12-07T00:06:41;33.20;;;27.30;;
29688;SDS011;16600;47.444;8.334;2022-12-07T00:09:10;42.80;;;31.13;;
29688;SDS011;16600;47.444;8.334;2022-12-07T00:11:40;43.25;;;29.13;;
29688;SDS011;16600;47.444;8.334;2022-12-07T00:14:07;40.65;;;27.77;;
29688;SDS011;16600;47.444;8.334;2022-12-07T00:16:34;39.17;;;27.15;;
29688;SDS011;16600;47.444;8.334;2022-12-07T00:19:00;36.40;;;28.45;;
29688;SDS011;16600;47.444;8.334;2022-12-07T00:21:27;36.25;;;29.05;;
29688;SDS011;16600;47.444;8.334;2022-12-07T00:23:54;38.72;;;27.73;;
29688;SDS011;16600;47.444;8.334;2022-12-07T00:26:21;35.40;;;26.10;;
29688;SDS011;16600;47.444;8.334;2022-12-07T00:28:51;43.20;;;31.13;;
29688;SDS011;16600;47.444;8.334;2022-12-07T00:31:21;37.03;;;28.88;;
29688;SDS011;16600;47.444;8.334;2022-12-07T00:33:47;42.42;;;29.88;;
29688;SDS011;16600;47.444;8.334;2022-12-07T00:36:15;40.80;;;30.30;;
29688;SDS011;16600;47.444;8.334;2022-12-07T00:38:41;36.15;;;27.42;;
29688;SDS011;16600;47.444;8.334;2022-12-07T00:41:10;36.88;;;28.00;;
29688;SDS011;16600;47.444;8.334;2022-12-07T00:43:40;38.78;;;28.90;;
29688;SDS011;16600;47.444;8.334;2022-12-07T00:46:09;37.25;;;29.38;;
29688;SDS011;16600;47.444;8.334;2022-12-07T00:48:36;38.45;;;28.98;;
29688;SDS011;16600;47.444;8.334;2022-12-07T00:51:02;43.17;;;31.58;;
29688;SDS011;16600;47.444;8.334;2022-12-07T00:53:29;36.38;;;29.58;;
29688;SDS011;16600;47.444;8.334;2022-12-07T00:55:56;39.30;;;30.38;;
29688;SDS011;16600;47.444;8.334;2022-12-07T00:58:22;33.53;;;27.27;;
29688;SDS011;16600;47.444;8.334;2022-12-07T01:00:51;35.95;;;30.02;;
29688;SDS011;16600;47.444;8.334;2022-12-07T01:03:20;32.47;;;28.00;;
29688;SDS011;16600;47.444;8.334;2022-12-07T01:05:50;37.28;;;29.15;;
29688;SDS011;16600;47.444;8.334;2022-12-07T01:08:17;39.42;;;29.83;;
29688;SDS011;16600;47.444;8.334;2022-12-07T01:10:46;38.65;;;28.85;;
29688;SDS011;16600;47.444;8.334;2022-12-07T01:13:13;40.75;;;28.85;;
29688;SDS011;16600;47.444;8.334;2022-12-07T01:15:42;35.45;;;26.58;;
29688;SDS011;16600;47.444;8.334;2022-12-07T01:18:11;36.03;;;29.05;;
29688;SDS011;16600;47.444;8.334;2022-12-07T01:23:03;35.40;;;28.50;;
29688;SDS011;16600;47.444;8.334;2022-12-07T01:25:32;42.60;;;28.90;;
29688;SDS011;16600;47.444;8.334;2022-12-07T01:27:59;37.25;;;28.55;;
29688;SDS011;16600;47.444;8.334;2022-12-07T01:30:25;37.05;;;29.73;;
29688;SDS011;16600;47.444;8.334;2022-12-07T01:32:53;37.60;;;28.60;;
29688;SDS011;16600;47.444;8.334;2022-12-07T01:35:20;39.92;;;29.75;;
29688;SDS011;16600;47.444;8.334;2022-12-07T01:37:50;47.05;;;30.42;;
29688;SDS011;16600;47.444;8.334;2022-12-07T01:40:16;39.58;;;30.45;;
29688;SDS011;16600;47.444;8.334;2022-12-07T01:42:42;38.00;;;29.17;;
29688;SDS011;16600;47.444;8.334;2022-12-07T01:47:55;41.65;;;29.08;;
29688;SDS011;16600;47.444;8.334;2022-12-07T01:50:23;36.67;;;29.65;;
29688;SDS011;16600;47.444;8.334;2022-12-07T01:52:53;38.75;;;29.23;;
29688;SDS011;16600;47.444;8.334;2022-12-07T01:55:22;37.78;;;28.00;;
29688;SDS011;16600;47.444;8.334;2022-12-07T01:57:52;42.45;;;29.92;;
29688;SDS011;16600;47.444;8.334;2022-12-07T02:00:19;36.88;;;29.50;;
29688;SDS011;16600;47.444;8.334;2022-12-07T02:05:38;38.40;;;28.85;;
29688;SDS011;16600;47.444;8.334;2022-12-07T02:08:08;37.47;;;30.13;;
29688;SDS011;16600;47.444;8.334;2022-12-07T02:10:35;39.13;;;29.27;;
29688;SDS011;16600;47.444;8.334;2022-12-07T02:13:06;34.97;;;29.52;;
29688;SDS011;16600;47.444;8.334;2022-12-07T02:15:40;46.92;;;33.72;;
29688;SDS011;16600;47.444;8.334;2022-12-07T02:18:24;39.15;;;30.70;;
29688;SDS011;16600;47.444;8.334;2022-12-07T02:21:07;34.30;;;28.02;;
29688;SDS011;16600;47.444;8.334;2022-12-07T02:26:19;42.67;;;30.05;;
29688;SDS011;16600;47.444;8.334;2022-12-07T02:31:42;38.53;;;28.35;;
29688;SDS011;16600;47.444;8.334;2022-12-07T02:34:17;39.72;;;28.85;;
29688;SDS011;16600;47.444;8.334;2022-12-07T02:36:46;35.75;;;29.25;;
29688;SDS011;16600;47.444;8.334;2022-12-07T02:39:25;36.17;;;29.35;;
29688;SDS011;16600;47.444;8.334;2022-12-07T02:41:55;34.95;;;29.27;;
29688;SDS011;16600;47.444;8.334;2022-12-07T02:44:23;36.33;;;29.38;;
29688;SDS011;16600;47.444;8.334;2022-12-07T02:46:57;43.95;;;31.95;;
29688;SDS011;16600;47.444;8.334;2022-12-07T02:49:32;36.47;;;30.20;;
29688;SDS011;16600;47.444;8.334;2022-12-07T02:52:04;37.53;;;31.02;;
29688;SDS011;16600;47.444;8.334;2022-12-07T02:54:30;36.10;;;29.27;;
29688;SDS011;16600;47.444;8.334;2022-12-07T02:57:11;38.65;;;29.52;;
29688;SDS011;16600;47.444;8.334;2022-12-07T03:10:31;39.90;;;30.25;;
29688;SDS011;16600;47.444;8.334;2022-12-07T03:13:04;42.42;;;29.83;;
29688;SDS011;16600;47.444;8.334;2022-12-07T03:15:43;34.95;;;28.42;;
29688;SDS011;16600;47.444;8.334;2022-12-07T03:18:15;41.35;;;29.08;;
29688;SDS011;16600;47.444;8.334;2022-12-07T03:20:42;36.75;;;27.58;;
29688;SDS011;16600;47.444;8.334;2022-12-07T03:23:09;33.70;;;27.33;;
29688;SDS011;16600;47.444;8.334;2022-12-07T03:25:39;41.95;;;29.58;;
29688;SDS011;16600;47.444;8.334;2022-12-07T03:28:06;36.17;;;29.13;;
29688;SDS011;16600;47.444;8.334;2022-12-07T03:30:39;38.30;;;29.35;;
29688;SDS011;16600;47.444;8.334;2022-12-07T03:33:21;42.65;;;30.88;;
29688;SDS011;16600;47.444;8.334;2022-12-07T03:36:06;41.05;;;31.83;;
29688;SDS011;16600;47.444;8.334;2022-12-07T03:38:42;43.17;;;29.15;;
29688;SDS011;16600;47.444;8.334;2022-12-07T03:41:09;37.88;;;30.13;;
29688;SDS011;16600;47.444;8.334;2022-12-07T03:43:37;39.25;;;29.77;;
29688;SDS011;16600;47.444;8.334;2022-12-07T03:46:38;38.55;;;29.70;;
29688;SDS011;16600;47.444;8.334;2022-12-07T03:49:07;35.78;;;29.27;;
29688;SDS011;16600;47.444;8.334;2022-12-07T03:54:10;33.03;;;29.20;;
29688;SDS011;16600;47.444;8.334;2022-12-07T03:56:37;37.10;;;30.40;;
29688;SDS011;16600;47.444;8.334;2022-12-07T03:59:05;41.17;;;30.38;;
29688;SDS011;16600;47.444;8.334;2022-12-07T04:01:34;37.20;;;30.27;;
29688;SDS011;16600;47.444;8.334;2022-12-07T04:04:00;42.60;;;30.42;;
29688;SDS011;16600;47.444;8.334;2022-12-07T04:06:29;37.30;;;30.88;;
29688;SDS011;16600;47.444;8.334;2022-12-07T04:08:56;36.67;;;28.63;;
29688;SDS011;16600;47.444;8.334;2022-12-07T04:11:22;40.25;;;31.52;;
29688;SDS011;16600;47.444;8.334;2022-12-07T04:13:48;34.05;;;29.30;;
29688;SDS011;16600;47.444;8.334;2022-12-07T04:16:32;42.13;;;31.15;;
29688;SDS011;16600;47.444;8.334;2022-12-07T04:19:01;39.90;;;30.17;;
29688;SDS011;16600;47.444;8.334;2022-12-07T04:21:27;46.08;;;32.30;;
29688;SDS011;16600;47.444;8.334;2022-12-07T04:23:53;47.70;;;30.40;;
29688;SDS011;16600;47.444;8.334;2022-12-07T04:26:22;39.97;;;30.65;;
29688;SDS011;16600;47.444;8.334;2022-12-07T04:31:14;42.80;;;32.15;;
29688;SDS011;16600;47.444;8.334;2022-12-07T04:33:40;43.60;;;33.92;;
29688;SDS011;16600;47.444;8.334;2022-12-07T04:36:09;44.55;;;33.40;;
29688;SDS011;16600;47.444;8.334;2022-12-07T04:38:35;44.22;;;33.08;;
29688;SDS011;16600;47.444;8.334;2022-12-07T04:41:05;47.33;;;31.27;;
29688;SDS011;16600;47.444;8.334;2022-12-07T04:43:34;45.08;;;33.55;;
29688;SDS011;16600;47.444;8.334;2022-12-07T04:46:04;44.92;;;32.17;;
29688;SDS011;16600;47.444;8.334;2022-12-07T04:48:30;42.35;;;31.92;;
29688;SDS011;16600;47.444;8.334;2022-12-07T04:50:59;45.35;;;34.17;;
29688;SDS011;16600;47.444;8.334;2022-12-07T04:55:51;39.60;;;30.50;;
29688;SDS011;16600;47.444;8.334;2022-12-07T04:58:17;43.50;;;31.58;;
29688;SDS011;16600;47.444;8.334;2022-12-07T05:03:01;38.93;;;30.63;;
29688;SDS011;16600;47.444;8.334;2022-12-07T05:05:28;42.20;;;30.83;;
29688;SDS011;16600;47.444;8.334;2022-12-07T05:10:22;37.22;;;30.70;;
29688;SDS011;16600;47.444;8.334;2022-12-07T05:12:48;38.38;;;30.85;;
29688;SDS011;16600;47.444;8.334;2022-12-07T05:15:14;37.75;;;30.55;;
29688;SDS011;16600;47.444;8.334;2022-12-07T05:17:44;43.38;;;31.58;;
29688;SDS011;16600;47.444;8.334;2022-12-07T05:20:10;38.25;;;31.58;;
29688;SDS011;16600;47.444;8.334;2022-12-07T05:22:37;45.13;;;32.40;;
29688;SDS011;16600;47.444;8.334;2022-12-07T05:25:05;33.30;;;29.52;;
29688;SDS011;16600;47.444;8.334;2022-12-07T05:27:34;40.50;;;31.08;;
29688;SDS011;16600;47.444;8.334;2022-12-07T05:30:01;36.72;;;30.58;;
29688;SDS011;16600;47.444;8.334;2022-12-07T05:32:30;41.00;;;31.38;;
29688;SDS011;16600;47.444;8.334;2022-12-07T05:34:59;37.85;;;31.23;;
29688;SDS011;16600;47.444;8.334;2022-12-07T05:37:26;44.85;;;32.08;;
29688;SDS011;16600;47.444;8.334;2022-12-07T05:40:03;51.80;;;30.00;;
29688;SDS011;16600;47.444;8.334;2022-12-07T05:42:34;47.38;;;33.00;;
29688;SDS011;16600;47.444;8.334;2022-12-07T05:45:03;53.08;;;32.38;;
29688;SDS011;16600;47.444;8.334;2022-12-07T05:47:30;38.45;;;30.40;;
29688;SDS011;16600;47.444;8.334;2022-12-07T05:49:56;46.17;;;33.63;;
29688;SDS011;16600;47.444;8.334;2022-12-07T05:52:23;38.85;;;30.48;;
29688;SDS011;16600;47.444;8.334;2022-12-07T05:54:52;43.67;;;33.00;;
29688;SDS011;16600;47.444;8.334;2022-12-07T05:57:19;41.58;;;31.00;;
29688;SDS011;16600;47.444;8.334;2022-12-07T05:59:47;45.35;;;32.22;;
29688;SDS011;16600;47.444;8.334;2022-12-07T06:02:14;46.58;;;33.47;;
29688;SDS011;16600;47.444;8.334;2022-12-07T06:04:46;49.13;;;33.78;;
29688;SDS011;16600;47.444;8.334;2022-12-07T06:07:16;36.70;;;30.67;;
29688;SDS011;16600;47.444;8.334;2022-12-07T06:09:42;41.65;;;33.22;;
29688;SDS011;16600;47.444;8.334;2022-12-07T06:12:11;42.33;;;32.75;;
29688;SDS011;16600;47.444;8.334;2022-12-07T06:14:56;45.33;;;32.65;;
29688;SDS011;16600;47.444;8.334;2022-12-07T06:17:23;41.53;;;34.55;;
29688;SDS011;16600;47.444;8.334;2022-12-07T06:19:49;43.05;;;33.88;;
29688;SDS011;16600;47.444;8.334;2022-12-07T06:22:18;47.75;;;35.78;;
29688;SDS011;16600;47.444;8.334;2022-12-07T06:24:47;49.88;;;36.17;;
29688;SDS011;16600;47.444;8.334;2022-12-07T06:27:16;54.88;;;35.35;;
29688;SDS011;16600;47.444;8.334;2022-12-07T06:29:45;45.10;;;34.40;;
29688;SDS011;16600;47.444;8.334;2022-12-07T06:32:11;43.25;;;33.85;;
29688;SDS011;16600;47.444;8.334;2022-12-07T06:34:44;47.90;;;34.53;;
29688;SDS011;16600;47.444;8.334;2022-12-07T06:37:14;57.13;;;37.13;;
29688;SDS011;16600;47.444;8.334;2022-12-07T06:39:46;48.00;;;34.45;;
29688;SDS011;16600;47.444;8.334;2022-12-07T06:42:15;50.00;;;35.65;;
29688;SDS011;16600;47.444;8.334;2022-12-07T06:44:42;52.28;;;37.15;;
29688;SDS011;16600;47.444;8.334;2022-12-07T06:47:08;57.75;;;36.55;;
29688;SDS011;16600;47.444;8.334;2022-12-07T06:49:35;51.33;;;35.53;;
29688;SDS011;16600;47.444;8.334;2022-12-07T06:52:01;60.72;;;35.95;;
29688;SDS011;16600;47.444;8.334;2022-12-07T06:54:27;68.30;;;39.53;;
29688;SDS011;16600;47.444;8.334;2022-12-07T06:56:55;57.67;;;40.20;;
29688;SDS011;16600;47.444;8.334;2022-12-07T06:59:21;53.03;;;38.83;;
29688;SDS011;16600;47.444;8.334;2022-12-07T07:01:48;53.33;;;36.10;;
29688;SDS011;16600;47.444;8.334;2022-12-07T07:06:42;51.30;;;33.80;;
29688;SDS011;16600;47.444;8.334;2022-12-07T07:11:35;51.73;;;33.73;;
29688;SDS011;16600;47.444;8.334;2022-12-07T07:14:01;48.80;;;34.40;;
29688;SDS011;16600;47.444;8.334;2022-12-07T07:16:30;53.67;;;34.75;;
29688;SDS011;16600;47.444;8.334;2022-12-07T07:18:56;45.88;;;34.65;;
29688;SDS011;16600;47.444;8.334;2022-12-07T07:21:23;61.28;;;36.00;;
29688;SDS011;16600;47.444;8.334;2022-12-07T07:23:49;54.53;;;36.13;;
29688;SDS011;16600;47.444;8.334;2022-12-07T07:26:15;52.10;;;36.70;;
29688;SDS011;16600;47.444;8.334;2022-12-07T07:31:13;64.65;;;37.17;;
29688;SDS011;16600;47.444;8.334;2022-12-07T07:33:39;65.72;;;39.83;;
29688;SDS011;16600;47.444;8.334;2022-12-07T07:36:05;63.78;;;40.85;;
29688;SDS011;16600;47.444;8.334;2022-12-07T07:38:31;57.17;;;38.53;;
29688;SDS011;16600;47.444;8.334;2022-12-07T07:40:58;53.80;;;35.72;;
29688;SDS011;16600;47.444;8.334;2022-12-07T07:43:30;49.72;;;33.40;;
29688;SDS011;16600;47.444;8.334;2022-12-07T07:45:56;67.88;;;35.88;;
29688;SDS011;16600;47.444;8.334;2022-12-07T07:50:50;56.55;;;35.78;;
29688;SDS011;16600;47.444;8.334;2022-12-07T07:53:16;59.63;;;36.45;;
29688;SDS011;16600;47.444;8.334;2022-12-07T07:55:50;47.70;;;35.05;;
29688;SDS011;16600;47.444;8.334;2022-12-07T07:58:16;52.88;;;35.25;;
29688;SDS011;16600;47.444;8.334;2022-12-07T08:00:45;57.42;;;35.95;;
29688;SDS011;16600;47.444;8.334;2022-12-07T08:03:12;53.78;;;36.03;;
29688;SDS011;16600;47.444;8.334;2022-12-07T08:05:40;54.92;;;36.88;;
29688;SDS011;16600;47.444;8.334;2022-12-07T08:08:09;51.88;;;34.65;;
29688;SDS011;16600;47.444;8.334;2022-12-07T08:13:01;54.03;;;36.33;;
29688;SDS011;16600;47.444;8.334;2022-12-07T08:15:41;51.60;;;36.20;;
29688;SDS011;16600;47.444;8.334;2022-12-07T08:18:10;48.78;;;34.85;;
29688;SDS011;16600;47.444;8.334;2022-12-07T08:20:40;62.88;;;40.10;;
29688;SDS011;16600;47.444;8.334;2022-12-07T08:23:12;57.78;;;38.95;;
29688;SDS011;16600;47.444;8.334;2022-12-07T08:25:41;55.40;;;38.40;;
29688;SDS011;16600;47.444;8.334;2022-12-07T08:28:07;58.13;;;37.95;;
29688;SDS011;16600;47.444;8.334;2022-12-07T08:30:33;61.10;;;38.65;;
29688;SDS011;16600;47.444;8.334;2022-12-07T08:33:03;52.97;;;36.75;;
29688;SDS011;16600;47.444;8.334;2022-12-07T08:37:54;59.75;;;36.72;;
29688;SDS011;16600;47.444;8.334;2022-12-07T08:40:22;58.03;;;39.83;;
29688;SDS011;16600;47.444;8.334;2022-12-07T08:42:54;57.38;;;36.75;;
29688;SDS011;16600;47.444;8.334;2022-12-07T08:47:52;54.00;;;33.47;;
29688;SDS011;16600;47.444;8.334;2022-12-07T08:50:19;65.07;;;36.38;;
29688;SDS011;16600;47.444;8.334;2022-12-07T08:52:50;54.92;;;38.13;;
29688;SDS011;16600;47.444;8.334;2022-12-07T08:55:17;57.05;;;37.80;;
29688;SDS011;16600;47.444;8.334;2022-12-07T08:57:44;48.88;;;35.75;;
29688;SDS011;16600;47.444;8.334;2022-12-07T09:00:10;51.92;;;35.80;;
29688;SDS011;16600;47.444;8.334;2022-12-07T09:02:39;51.00;;;33.60;;
29688;SDS011;16600;47.444;8.334;2022-12-07T09:05:09;59.80;;;36.25;;
29688;SDS011;16600;47.444;8.334;2022-12-07T09:07:35;46.38;;;32.95;;
29688;SDS011;16600;47.444;8.334;2022-12-07T09:10:02;36.65;;;29.30;;
29688;SDS011;16600;47.444;8.334;2022-12-07T09:12:29;38.40;;;28.15;;
29688;SDS011;16600;47.444;8.334;2022-12-07T09:14:58;43.35;;;29.75;;
29688;SDS011;16600;47.444;8.334;2022-12-07T09:17:26;35.85;;;27.50;;
29688;SDS011;16600;47.444;8.334;2022-12-07T09:19:52;46.35;;;30.60;;
29688;SDS011;16600;47.444;8.334;2022-12-07T09:22:21;43.80;;;29.67;;
29688;SDS011;16600;47.444;8.334;2022-12-07T09:24:47;39.83;;;27.20;;
29688;SDS011;16600;47.444;8.334;2022-12-07T09:27:14;36.72;;;27.05;;
29688;SDS011;16600;47.444;8.334;2022-12-07T09:29:40;37.72;;;27.27;;
29688;SDS011;16600;47.444;8.334;2022-12-07T09:32:09;36.28;;;27.85;;
29688;SDS011;16600;47.444;8.334;2022-12-07T09:34:35;40.58;;;31.92;;
29688;SDS011;16600;47.444;8.334;2022-12-07T09:37:01;46.47;;;33.00;;
29688;SDS011;16600;47.444;8.334;2022-12-07T09:39:29;43.28;;;28.58;;
29688;SDS011;16600;47.444;8.334;2022-12-07T09:41:56;34.25;;;25.95;;
29688;SDS011;16600;47.444;8.334;2022-12-07T09:44:24;32.05;;;25.73;;
29688;SDS011;16600;47.444;8.334;2022-12-07T09:46:54;35.15;;;26.05;;
29688;SDS011;16600;47.444;8.334;2022-12-07T09:49:23;29.27;;;24.77;;
29688;SDS011;16600;47.444;8.334;2022-12-07T09:54:27;39.83;;;24.55;;
29688;SDS011;16600;47.444;8.334;2022-12-07T09:56:54;32.03;;;23.25;;
29688;SDS011;16600;47.444;8.334;2022-12-07T09:59:20;43.33;;;25.10;;
29688;SDS011;16600;47.444;8.334;2022-12-07T10:01:50;32.28;;;24.45;;
29688;SDS011;16600;47.444;8.334;2022-12-07T10:04:20;31.67;;;23.80;;
29688;SDS011;16600;47.444;8.334;2022-12-07T10:06:47;29.83;;;24.25;;
29688;SDS011;16600;47.444;8.334;2022-12-07T10:09:15;27.17;;;22.08;;
29688;SDS011;16600;47.444;8.334;2022-12-07T10:14:30;32.80;;;24.85;;
29688;SDS011;16600;47.444;8.334;2022-12-07T10:16:56;26.15;;;20.50;;
29688;SDS011;16600;47.444;8.334;2022-12-07T10:19:27;23.17;;;19.55;;
29688;SDS011;16600;47.444;8.334;2022-12-07T10:22:01;22.27;;;19.05;;
29688;SDS011;16600;47.444;8.334;2022-12-07T10:24:29;21.48;;;18.25;;
29688;SDS011;16600;47.444;8.334;2022-12-07T10:26:55;24.08;;;18.20;;
29688;SDS011;16600;47.444;8.334;2022-12-07T10:36:50;27.95;;;19.00;;
29688;SDS011;16600;47.444;8.334;2022-12-07T10:39:18;26.30;;;20.08;;
29688;SDS011;16600;47.444;8.334;2022-12-07T10:44:24;21.83;;;18.63;;
29688;SDS011;16600;47.444;8.334;2022-12-07T11:03:45;30.43;;;18.67;;
29688;SDS011;16600;47.444;8.334;2022-12-07T11:06:01;22.50;;;19.30;;
29688;SDS011;16600;47.444;8.334;2022-12-07T11:11:09;26.15;;;17.67;;
29688;SDS011;16600;47.444;8.334;2022-12-07T11:13:48;28.70;;;18.38;;
29688;SDS011;16600;47.444;8.334;2022-12-07T11:16:21;22.80;;;17.67;;
29688;SDS011;16600;47.444;8.334;2022-12-07T11:18:59;20.23;;;16.50;;
29688;SDS011;16600;47.444;8.334;2022-12-07T11:21:35;26.13;;;19.00;;
29688;SDS011;16600;47.444;8.334;2022-12-07T11:26:56;22.45;;;17.17;;
29688;SDS011;16600;47.444;8.334;2022-12-07T11:37:13;22.60;;;17.90;;
29688;SDS011;16600;47.444;8.334;2022-12-07T11:39:49;24.77;;;17.65;;
29688;SDS011;16600;47.444;8.334;2022-12-07T11:42:19;21.52;;;17.45;;
29688;SDS011;16600;47.444;8.334;2022-12-07T11:47:43;25.00;;;19.70;;
29688;SDS011;16600;47.444;8.334;2022-12-07T11:50:31;25.27;;;19.30;;
29688;SDS011;16600;47.444;8.334;2022-12-07T11:53:00;24.52;;;19.13;;
29688;SDS011;16600;47.444;8.334;2022-12-07T12:00:41;27.33;;;20.23;;
29688;SDS011;16600;47.444;8.334;2022-12-07T12:03:16;22.65;;;18.88;;
29688;SDS011;16600;47.444;8.334;2022-12-07T12:05:46;26.55;;;19.45;;
29688;SDS011;16600;47.444;8.334;2022-12-07T12:08:16;28.27;;;19.13;;
29688;SDS011;16600;47.444;8.334;2022-12-07T12:11:00;21.98;;;18.17;;
29688;SDS011;16600;47.444;8.334;2022-12-07T12:13:33;24.52;;;19.65;;
29688;SDS011;16600;47.444;8.334;2022-12-07T12:21:04;25.65;;;19.80;;
29688;SDS011;16600;47.444;8.334;2022-12-07T12:23:45;24.73;;;19.08;;
29688;SDS011;16600;47.444;8.334;2022-12-07T12:26:21;26.15;;;20.55;;
29688;SDS011;16600;47.444;8.334;2022-12-07T12:28:56;22.23;;;19.00;;
29688;SDS011;16600;47.444;8.334;2022-12-07T12:31:39;25.23;;;19.55;;
29688;SDS011;16600;47.444;8.334;2022-12-07T12:36:51;24.98;;;19.30;;
29688;SDS011;16600;47.444;8.334;2022-12-07T12:39:17;32.22;;;20.58;;
29688;SDS011;16600;47.444;8.334;2022-12-07T12:41:50;31.95;;;20.08;;
29688;SDS011;16600;47.444;8.334;2022-12-07T12:46:48;29.30;;;19.00;;
29688;SDS011;16600;47.444;8.334;2022-12-07T12:51:45;28.50;;;20.08;;
29688;SDS011;16600;47.444;8.334;2022-12-07T12:54:18;25.52;;;20.20;;
29688;SDS011;16600;47.444;8.334;2022-12-07T12:59:24;26.83;;;19.63;;
29688;SDS011;16600;47.444;8.334;2022-12-07T13:01:53;25.55;;;19.25;;
29688;SDS011;16600;47.444;8.334;2022-12-07T13:06:49;31.88;;;19.55;;
29688;SDS011;16600;47.444;8.334;2022-12-07T13:09:17;22.85;;;18.73;;
29688;SDS011;16600;47.444;8.334;2022-12-07T13:11:48;22.92;;;18.10;;
29688;SDS011;16600;47.444;8.334;2022-12-07T13:20:04;25.70;;;18.30;;
29688;SDS011;16600;47.444;8.334;2022-12-07T13:27:51;24.48;;;18.10;;
29688;SDS011;16600;47.444;8.334;2022-12-07T13:30:20;20.10;;;16.38;;
29688;SDS011;16600;47.444;8.334;2022-12-07T13:32:53;25.38;;;17.33;;
29688;SDS011;16600;47.444;8.334;2022-12-07T13:35:30;20.77;;;16.98;;
29688;SDS011;16600;47.444;8.334;2022-12-07T13:37:57;22.17;;;16.83;;
29688;SDS011;16600;47.444;8.334;2022-12-07T13:40:23;20.25;;;17.00;;
29688;SDS011;16600;47.444;8.334;2022-12-07T13:43:02;22.15;;;17.13;;
29688;SDS011;16600;47.444;8.334;2022-12-07T13:45:32;21.77;;;16.88;;
29688;SDS011;16600;47.444;8.334;2022-12-07T13:48:15;21.73;;;16.70;;
29688;SDS011;16600;47.444;8.334;2022-12-07T13:50:42;19.10;;;15.82;;
29688;SDS011;16600;47.444;8.334;2022-12-07T13:53:11;19.48;;;15.40;;
29688;SDS011;16600;47.444;8.334;2022-12-07T13:55:38;20.40;;;16.48;;
29688;SDS011;16600;47.444;8.334;2022-12-07T13:58:09;19.20;;;15.95;;
29688;SDS011;16600;47.444;8.334;2022-12-07T14:00:39;16.42;;;14.73;;
29688;SDS011;16600;47.444;8.334;2022-12-07T14:05:38;22.50;;;17.20;;
29688;SDS011;16600;47.444;8.334;2022-12-07T14:08:20;24.50;;;14.82;;
29688;SDS011;16600;47.444;8.334;2022-12-07T14:13:27;19.73;;;15.07;;
29688;SDS011;16600;47.444;8.334;2022-12-07T14:15:54;20.90;;;16.00;;
29688;SDS011;16600;47.444;8.334;2022-12-07T14:18:35;28.42;;;16.08;;
29688;SDS011;16600;47.444;8.334;2022-12-07T14:23:45;24.85;;;16.05;;
29688;SDS011;16600;47.444;8.334;2022-12-07T14:26:27;20.73;;;16.65;;
29688;SDS011;16600;47.444;8.334;2022-12-07T14:31:21;17.90;;;14.55;;
29688;SDS011;16600;47.444;8.334;2022-12-07T14:33:49;18.45;;;14.93;;
29688;SDS011;16600;47.444;8.334;2022-12-07T14:36:15;19.27;;;14.88;;
29688;SDS011;16600;47.444;8.334;2022-12-07T14:38:42;19.42;;;15.88;;
29688;SDS011;16600;47.444;8.334;2022-12-07T14:41:14;19.90;;;15.75;;
29688;SDS011;16600;47.444;8.334;2022-12-07T14:44:00;16.48;;;14.75;;
29688;SDS011;16600;47.444;8.334;2022-12-07T14:46:26;22.10;;;16.50;;
29688;SDS011;16600;47.444;8.334;2022-12-07T14:49:10;19.10;;;15.50;;
29688;SDS011;16600;47.444;8.334;2022-12-07T14:51:39;18.20;;;15.50;;
29688;SDS011;16600;47.444;8.334;2022-12-07T14:54:07;26.33;;;16.90;;
29688;SDS011;16600;47.444;8.334;2022-12-07T14:56:38;21.23;;;16.60;;
29688;SDS011;16600;47.444;8.334;2022-12-07T14:59:04;21.83;;;16.23;;
29688;SDS011;16600;47.444;8.334;2022-12-07T15:01:30;20.35;;;15.95;;
29688;SDS011;16600;47.444;8.334;2022-12-07T15:03:56;21.20;;;16.80;;
29688;SDS011;16600;47.444;8.334;2022-12-07T15:06:28;20.33;;;15.85;;
29688;SDS011;16600;47.444;8.334;2022-12-07T15:08:57;32.28;;;18.02;;
29688;SDS011;16600;47.444;8.334;2022-12-07T15:11:23;23.13;;;18.88;;
29688;SDS011;16600;47.444;8.334;2022-12-07T15:13:49;20.90;;;16.17;;
29688;SDS011;16600;47.444;8.334;2022-12-07T15:16:34;19.50;;;17.17;;
29688;SDS011;16600;47.444;8.334;2022-12-07T15:19:01;28.63;;;20.13;;
29688;SDS011;16600;47.444;8.334;2022-12-07T15:21:27;25.25;;;19.05;;
29688;SDS011;16600;47.444;8.334;2022-12-07T15:23:53;42.17;;;20.95;;
29688;SDS011;16600;47.444;8.334;2022-12-07T15:26:19;27.20;;;20.63;;
29688;SDS011;16600;47.444;8.334;2022-12-07T15:28:46;38.17;;;21.80;;
29688;SDS011;16600;47.444;8.334;2022-12-07T15:31:15;33.03;;;21.58;;
29688;SDS011;16600;47.444;8.334;2022-12-07T15:33:42;37.13;;;22.80;;
29688;SDS011;16600;47.444;8.334;2022-12-07T15:36:20;29.77;;;22.20;;
29688;SDS011;16600;47.444;8.334;2022-12-07T15:38:49;30.08;;;23.58;;
29688;SDS011;16600;47.444;8.334;2022-12-07T15:41:18;34.25;;;23.85;;
29688;SDS011;16600;47.444;8.334;2022-12-07T15:43:47;41.00;;;24.20;;
29688;SDS011;16600;47.444;8.334;2022-12-07T15:46:35;39.47;;;24.88;;
29688;SDS011;16600;47.444;8.334;2022-12-07T15:49:31;27.38;;;23.15;;
29688;SDS011;16600;47.444;8.334;2022-12-07T15:51:57;39.63;;;27.35;;
29688;SDS011;16600;47.444;8.334;2022-12-07T15:54:24;34.63;;;25.38;;
29688;SDS011;16600;47.444;8.334;2022-12-07T15:56:51;35.63;;;27.00;;
29688;SDS011;16600;47.444;8.334;2022-12-07T15:59:17;41.85;;;30.50;;
29688;SDS011;16600;47.444;8.334;2022-12-07T16:01:43;43.35;;;27.75;;
29688;SDS011;16600;47.444;8.334;2022-12-07T16:04:09;39.42;;;28.52;;
29688;SDS011;16600;47.444;8.334;2022-12-07T16:06:39;43.00;;;28.25;;
29688;SDS011;16600;47.444;8.334;2022-12-07T16:09:05;40.28;;;28.60;;
29688;SDS011;16600;47.444;8.334;2022-12-07T16:11:32;41.63;;;28.23;;
29688;SDS011;16600;47.444;8.334;2022-12-07T16:13:59;46.72;;;29.25;;
29688;SDS011;16600;47.444;8.334;2022-12-07T16:16:25;39.08;;;28.38;;
29688;SDS011;16600;47.444;8.334;2022-12-07T16:18:54;46.22;;;28.05;;
29688;SDS011;16600;47.444;8.334;2022-12-07T16:21:24;40.78;;;28.60;;
29688;SDS011;16600;47.444;8.334;2022-12-07T16:23:50;43.22;;;27.95;;
29688;SDS011;16600;47.444;8.334;2022-12-07T16:26:20;42.92;;;27.75;;
29688;SDS011;16600;47.444;8.334;2022-12-07T16:28:49;40.45;;;28.60;;
29688;SDS011;16600;47.444;8.334;2022-12-07T16:31:18;44.88;;;28.95;;
29688;SDS011;16600;47.444;8.334;2022-12-07T16:33:47;48.55;;;27.63;;
29688;SDS011;16600;47.444;8.334;2022-12-07T16:36:15;43.08;;;29.48;;
29688;SDS011;16600;47.444;8.334;2022-12-07T16:38:44;42.00;;;31.08;;
29688;SDS011;16600;47.444;8.334;2022-12-07T16:41:13;41.30;;;30.73;;
29688;SDS011;16600;47.444;8.334;2022-12-07T16:43:43;48.05;;;31.33;;
29688;SDS011;16600;47.444;8.334;2022-12-07T16:46:12;43.80;;;29.58;;
29688;SDS011;16600;47.444;8.334;2022-12-07T16:48:42;45.38;;;30.70;;
29688;SDS011;16600;47.444;8.334;2022-12-07T16:51:08;40.55;;;29.00;;
29688;SDS011;16600;47.444;8.334;2022-12-07T16:53:35;40.95;;;29.05;;
29688;SDS011;16600;47.444;8.334;2022-12-07T16:56:12;49.63;;;28.55;;
29688;SDS011;16600;47.444;8.334;2022-12-07T16:58:42;45.10;;;30.42;;
29688;SDS011;16600;47.444;8.334;2022-12-07T17:03:04;50.43;;;31.60;;
29688;SDS011;16600;47.444;8.334;2022-12-07T17:05:40;42.17;;;29.80;;